sensor_id;sensor_type;location;lat;lon;timestamp;pressure;altitude;pressure_sealevel;temperature;humidity
78407;BME280;67692;51.074;-1.790;2024-02-04T00:01:16;102261.59;;;11.88;100.00
78407;BME280;67692;51.074;-1.790;2024-02-04T00:03:44;102262.19;;;11.93;100.00
78407;BME280;67692;51.074;-1.790;2024-02-04T00:06:11;102259.59;;;11.93;100.00
78407;BME280;67692;51.074;-1.790;2024-02-04T00:08:38;102253.56;;;11.93;100.00
78407;BME280;67692;51.074;-1.790;2024-02-04T00:11:04;102261.28;;;11.94;100.00
78407;BME280;67692;51.074;-1.790;2024-02-04T00:13:33;102257.75;;;11.95;100.00
78407;BME280;67692;51.074;-1.790;2024-02-04T00:15:59;102255.09;;;11.97;100.00
78407;BME280;67692;51.074;-1.790;2024-02-04T00:18:26;102255.09;;;11.97;100.00
78407;BME280;67692;51.074;-1.790;2024-02-04T00:20:54;102258.44;;;11.99;100.00
78407;BME280;67692;51.074;-1.790;2024-02-04T00:23:22;102251.44;;;12.01;100.00
78407;BME280;67692;51.074;-1.790;2024-02-04T00:25:48;102259.16;;;12.02;100.00
78407;BME280;67692;51.074;-1.790;2024-02-04T00:28:15;102262.66;;;12.01;100.00
78407;BME280;67692;51.074;-1.790;2024-02-04T00:30:44;102262.59;;;12.03;100.00
78407;BME280;67692;51.074;-1.790;2024-02-04T00:33:10;102255.66;;;12.03;100.00
78407;BME280;67692;51.074;-1.790;2024-02-04T00:35:37;102254.09;;;11.99;100.00
78407;BME280;67692;51.074;-1.790;2024-02-04T00:38:05;102250.53;;;12.02;100.00
78407;BME280;67692;51.074;-1.790;2024-02-04T00:40:32;102247.16;;;12.00;100.00
78407;BME280;67692;51.074;-1.790;2024-02-04T00:42:58;102247.97;;;12.00;100.00
78407;BME280;67692;51.074;-1.790;2024-02-04T00:45:25;102258.38;;;12.00;100.00
78407;BME280;67692;51.074;-1.790;2024-02-04T00:47:52;102258.31;;;12.02;100.00
78407;BME280;67692;51.074;-1.790;2024-02-04T00:50:18;102257.53;;;12.00;100.00
78407;BME280;67692;51.074;-1.790;2024-02-04T00:52:45;102258.59;;;11.96;100.00
78407;BME280;67692;51.074;-1.790;2024-02-04T00:55:13;102253.66;;;11.91;100.00
78407;BME280;67692;51.074;-1.790;2024-02-04T00:57:40;102255.56;;;11.87;100.00
78407;BME280;67692;51.074;-1.790;2024-02-04T01:00:07;102251.13;;;11.89;100.00
78407;BME280;67692;51.074;-1.790;2024-02-04T01:02:34;102246.94;;;11.87;100.00
78407;BME280;67692;51.074;-1.790;2024-02-04T01:05:01;102244.03;;;11.93;100.00
78407;BME280;67692;51.074;-1.790;2024-02-04T01:07:28;102250.06;;;11.94;100.00
78407;BME280;67692;51.074;-1.790;2024-02-04T01:09:54;102265.63;;;11.94;100.00
78407;BME280;67692;51.074;-1.790;2024-02-04T01:12:22;102251.72;;;11.95;100.00
78407;BME280;67692;51.074;-1.790;2024-02-04T01:14:49;102245.69;;;11.94;100.00
78407;BME280;67692;51.074;-1.790;2024-02-04T01:17:16;102240.50;;;11.94;100.00
78407;BME280;67692;51.074;-1.790;2024-02-04T01:19:42;102244.63;;;11.98;100.00
78407;BME280;67692;51.074;-1.790;2024-02-04T01:22:09;102247.22;;;11.98;100.00
78407;BME280;67692;51.074;-1.790;2024-02-04T01:24:36;102244.63;;;11.98;100.00
78407;BME280;67692;51.074;-1.790;2024-02-04T01:27:03;102245.53;;;11.97;100.00
78407;BME280;67692;51.074;-1.790;2024-02-04T01:29:31;102249.97;;;11.95;100.00
78407;BME280;67692;51.074;-1.790;2024-02-04T01:31:57;102242.19;;;11.95;100.00
78407;BME280;67692;51.074;-1.790;2024-02-04T01:34:24;102243.03;;;11.96;100.00
78407;BME280;67692;51.074;-1.790;2024-02-04T01:36:51;102227.44;;;11.96;100.00
78407;BME280;67692;51.074;-1.790;2024-02-04T01:39:17;102225.69;;;11.96;100.00
78407;BME280;67692;51.074;-1.790;2024-02-04T01:41:44;102218.81;;;11.95;100.00
78407;BME280;67692;51.074;-1.790;2024-02-04T01:44:11;102218.22;;;11.90;100.00
78407;BME280;67692;51.074;-1.790;2024-02-04T01:46:39;102215.56;;;11.91;100.00
78407;BME280;67692;51.074;-1.790;2024-02-04T01:49:06;102206.94;;;11.91;100.00
78407;BME280;67692;51.074;-1.790;2024-02-04T01:51:33;102205.25;;;11.90;100.00
78407;BME280;67692;51.074;-1.790;2024-02-04T01:54:00;102206.00;;;11.92;100.00
78407;BME280;67692;51.074;-1.790;2024-02-04T01:56:27;102205.25;;;11.90;100.00
78407;BME280;67692;51.074;-1.790;2024-02-04T01:58:54;102207.69;;;11.93;100.00
78407;BME280;67692;51.074;-1.790;2024-02-04T02:01:21;102211.13;;;11.94;100.00
78407;BME280;67692;51.074;-1.790;2024-02-04T02:03:50;102210.28;;;11.93;100.00
78407;BME280;67692;51.074;-1.790;2024-02-04T02:06:17;102211.13;;;11.94;100.00
78407;BME280;67692;51.074;-1.790;2024-02-04T02:08:44;102220.59;;;11.95;100.00
78407;BME280;67692;51.074;-1.790;2024-02-04T02:11:18;102206.00;;;11.92;100.00
78407;BME280;67692;51.074;-1.790;2024-02-04T02:13:55;102197.97;;;11.97;100.00
78407;BME280;67692;51.074;-1.790;2024-02-04T02:16:24;102208.59;;;11.92;100.00
78407;BME280;67692;51.074;-1.790;2024-02-04T02:18:57;102202.50;;;11.93;100.00
78407;BME280;67692;51.074;-1.790;2024-02-04T02:21:37;102202.50;;;11.93;100.00
78407;BME280;67692;51.074;-1.790;2024-02-04T02:24:10;102205.84;;;11.95;100.00
78407;BME280;67692;51.074;-1.790;2024-02-04T02:26:38;102205.69;;;11.98;100.00
78407;BME280;67692;51.074;-1.790;2024-02-04T02:29:07;102202.16;;;11.99;100.00
78407;BME280;67692;51.074;-1.790;2024-02-04T02:31:34;102212.88;;;11.93;100.00
78407;BME280;67692;51.074;-1.790;2024-02-04T02:34:01;102211.13;;;11.94;100.00
78407;BME280;67692;51.074;-1.790;2024-02-04T02:36:30;102209.81;;;11.85;100.00
78407;BME280;67692;51.074;-1.790;2024-02-04T02:39:08;102197.75;;;11.84;100.00
78407;BME280;67692;51.074;-1.790;2024-02-04T02:41:38;102204.78;;;11.82;100.00
78407;BME280;67692;51.074;-1.790;2024-02-04T02:44:08;102204.31;;;11.74;100.00
78407;BME280;67692;51.074;-1.790;2024-02-04T02:46:36;102204.31;;;11.74;100.00
78407;BME280;67692;51.074;-1.790;2024-02-04T02:49:04;102205.91;;;11.76;100.00
78407;BME280;67692;51.074;-1.790;2024-02-04T02:51:31;102194.84;;;11.73;100.00
78407;BME280;67692;51.074;-1.790;2024-02-04T02:53:57;102205.34;;;11.70;100.00
78407;BME280;67692;51.074;-1.790;2024-02-04T02:56:24;102191.63;;;11.68;100.00
78407;BME280;67692;51.074;-1.790;2024-02-04T02:58:52;102200.16;;;11.70;100.00
78407;BME280;67692;51.074;-1.790;2024-02-04T03:01:19;102195.75;;;11.72;100.00
78407;BME280;67692;51.074;-1.790;2024-02-04T03:03:45;102195.44;;;11.78;100.00
78407;BME280;67692;51.074;-1.790;2024-02-04T03:06:12;102188.56;;;11.77;100.00
78407;BME280;67692;51.074;-1.790;2024-02-04T03:08:38;102186.13;;;11.74;100.00
78407;BME280;67692;51.074;-1.790;2024-02-04T03:11:05;102187.66;;;11.78;100.00
78407;BME280;67692;51.074;-1.790;2024-02-04T03:13:32;102193.00;;;11.75;100.00
78407;BME280;67692;51.074;-1.790;2024-02-04T03:16:00;102196.53;;;11.74;100.00
78407;BME280;67692;51.074;-1.790;2024-02-04T03:18:27;102184.31;;;11.76;100.00
78407;BME280;67692;51.074;-1.790;2024-02-04T03:20:53;102181.63;;;11.77;100.00
78407;BME280;67692;51.074;-1.790;2024-02-04T03:23:20;102189.66;;;11.73;100.00
78407;BME280;67692;51.074;-1.790;2024-02-04T03:25:47;102194.00;;;11.72;100.00
78407;BME280;67692;51.074;-1.790;2024-02-04T03:28:13;102188.81;;;11.72;100.00
78407;BME280;67692;51.074;-1.790;2024-02-04T03:30:40;102191.31;;;11.74;100.00
78407;BME280;67692;51.074;-1.790;2024-02-04T03:33:08;102185.16;;;11.76;100.00
78407;BME280;67692;51.074;-1.790;2024-02-04T03:35:35;102185.22;;;11.75;100.00
78407;BME280;67692;51.074;-1.790;2024-02-04T03:38:02;102183.53;;;11.74;100.00
78407;BME280;67692;51.074;-1.790;2024-02-04T03:40:29;102180.78;;;11.77;100.00
78407;BME280;67692;51.074;-1.790;2024-02-04T03:42:56;102173.72;;;11.80;100.00
78407;BME280;67692;51.074;-1.790;2024-02-04T03:45:22;102177.81;;;11.84;100.00
78407;BME280;67692;51.074;-1.790;2024-02-04T03:47:49;102184.56;;;11.88;100.00
78407;BME280;67692;51.074;-1.790;2024-02-04T03:50:17;102180.34;;;11.86;100.00
78407;BME280;67692;51.074;-1.790;2024-02-04T03:52:44;102171.66;;;11.87;100.00
78407;BME280;67692;51.074;-1.790;2024-02-04T03:55:11;102178.81;;;11.82;100.00
78407;BME280;67692;51.074;-1.790;2024-02-04T03:57:37;102170.31;;;11.78;100.00
78407;BME280;67692;51.074;-1.790;2024-02-04T04:00:05;102181.50;;;11.80;100.00
78407;BME280;67692;51.074;-1.790;2024-02-04T04:02:33;102179.13;;;11.76;100.00
78407;BME280;67692;51.074;-1.790;2024-02-04T04:05:00;102181.78;;;11.74;100.00
78407;BME280;67692;51.074;-1.790;2024-02-04T04:07:28;102183.38;;;11.77;100.00
78407;BME280;67692;51.074;-1.790;2024-02-04T04:09:54;102172.91;;;11.78;100.00
78407;BME280;67692;51.074;-1.790;2024-02-04T04:12:21;102175.47;;;11.80;100.00
78407;BME280;67692;51.074;-1.790;2024-02-04T04:14:48;102169.50;;;11.78;100.00
78407;BME280;67692;51.074;-1.790;2024-02-04T04:17:14;102168.88;;;11.73;100.00
78407;BME280;67692;51.074;-1.790;2024-02-04T04:19:41;102164.47;;;11.75;100.00
78407;BME280;67692;51.074;-1.790;2024-02-04T04:22:07;102166.75;;;11.81;100.00
78407;BME280;67692;51.074;-1.790;2024-02-04T04:24:35;102159.75;;;11.83;100.00
78407;BME280;67692;51.074;-1.790;2024-02-04T04:27:04;102154.53;;;11.83;100.00
78407;BME280;67692;51.074;-1.790;2024-02-04T04:29:31;102142.50;;;11.82;100.00
78407;BME280;67692;51.074;-1.790;2024-02-04T04:31:57;102134.78;;;11.80;100.00
78407;BME280;67692;51.074;-1.790;2024-02-04T04:34:24;102142.66;;;11.79;100.00
78407;BME280;67692;51.074;-1.790;2024-02-04T04:36:51;102141.19;;;11.73;100.00
78407;BME280;67692;51.074;-1.790;2024-02-04T04:39:17;102138.81;;;11.69;100.00
78407;BME280;67692;51.074;-1.790;2024-02-04T04:41:45;102147.41;;;11.69;100.00
78407;BME280;67692;51.074;-1.790;2024-02-04T04:44:12;102136.97;;;11.71;100.00
78407;BME280;67692;51.074;-1.790;2024-02-04T04:46:39;102138.44;;;11.76;100.00
78407;BME280;67692;51.074;-1.790;2024-02-04T04:49:05;102130.72;;;11.75;100.00
78407;BME280;67692;51.074;-1.790;2024-02-04T04:51:32;102138.34;;;11.78;100.00
78407;BME280;67692;51.074;-1.790;2024-02-04T04:53:59;102136.66;;;11.77;100.00
78407;BME280;67692;51.074;-1.790;2024-02-04T04:56:26;102133.41;;;11.73;100.00
78407;BME280;67692;51.074;-1.790;2024-02-04T04:58:54;102139.44;;;11.74;100.00
78407;BME280;67692;51.074;-1.790;2024-02-04T05:01:20;102130.72;;;11.75;100.00
78407;BME280;67692;51.074;-1.790;2024-02-04T05:03:47;102130.00;;;11.71;100.00
78407;BME280;67692;51.074;-1.790;2024-02-04T05:06:14;102123.84;;;11.74;100.00
78407;BME280;67692;51.074;-1.790;2024-02-04T05:08:40;102132.41;;;11.76;100.00
78407;BME280;67692;51.074;-1.790;2024-02-04T05:11:07;102120.34;;;11.75;100.00
78407;BME280;67692;51.074;-1.790;2024-02-04T05:13:34;102130.72;;;11.75;100.00
78407;BME280;67692;51.074;-1.790;2024-02-04T05:16:01;102131.78;;;11.71;100.00
78407;BME280;67692;51.074;-1.790;2024-02-04T05:18:27;102132.69;;;11.70;100.00
78407;BME280;67692;51.074;-1.790;2024-02-04T05:20:54;102131.78;;;11.71;100.00
78407;BME280;67692;51.074;-1.790;2024-02-04T05:23:21;102129.19;;;11.71;100.00
78407;BME280;67692;51.074;-1.790;2024-02-04T05:25:48;102130.88;;;11.72;100.00
78407;BME280;67692;51.074;-1.790;2024-02-04T05:28:15;102129.41;;;11.66;100.00
78407;BME280;67692;51.074;-1.790;2024-02-04T05:30:41;102125.81;;;11.69;100.00
78407;BME280;67692;51.074;-1.790;2024-02-04T05:33:13;102125.81;;;11.69;100.00
78407;BME280;67692;51.074;-1.790;2024-02-04T05:35:41;102119.88;;;11.67;100.00
78407;BME280;67692;51.074;-1.790;2024-02-04T05:38:08;102122.31;;;11.70;100.00
78407;BME280;67692;51.074;-1.790;2024-02-04T05:40:34;102122.19;;;11.73;100.00
78407;BME280;67692;51.074;-1.790;2024-02-04T05:43:01;102118.66;;;11.74;100.00
78407;BME280;67692;51.074;-1.790;2024-02-04T05:45:31;102119.50;;;11.74;100.00
78407;BME280;67692;51.074;-1.790;2024-02-04T05:47:58;102122.03;;;11.76;100.00
78407;BME280;67692;51.074;-1.790;2024-02-04T05:50:26;102116.06;;;11.74;100.00
78407;BME280;67692;51.074;-1.790;2024-02-04T05:52:53;102124.53;;;11.77;100.00
78407;BME280;67692;51.074;-1.790;2024-02-04T05:55:20;102121.03;;;11.78;100.00
78407;BME280;67692;51.074;-1.790;2024-02-04T05:57:46;102110.50;;;11.81;100.00
78407;BME280;67692;51.074;-1.790;2024-02-04T06:00:14;102115.91;;;11.77;100.00
78407;BME280;67692;51.074;-1.790;2024-02-04T06:02:41;102119.22;;;11.80;100.00
78407;BME280;67692;51.074;-1.790;2024-02-04T06:05:08;102120.66;;;11.86;100.00
78407;BME280;67692;51.074;-1.790;2024-02-04T06:07:36;102113.84;;;11.83;100.00
78407;BME280;67692;51.074;-1.790;2024-02-04T06:10:03;102111.19;;;11.85;100.00
78407;BME280;67692;51.074;-1.790;2024-02-04T06:12:30;102105.06;;;11.86;100.00
78407;BME280;67692;51.074;-1.790;2024-02-04T06:14:57;102099.75;;;11.89;100.00
78407;BME280;67692;51.074;-1.790;2024-02-04T06:17:23;102102.19;;;11.92;100.00
78407;BME280;67692;51.074;-1.790;2024-02-04T06:19:50;102106.44;;;11.93;100.00
78407;BME280;67692;51.074;-1.790;2024-02-04T06:22:16;102109.13;;;11.91;100.00
78407;BME280;67692;51.074;-1.790;2024-02-04T06:24:44;102105.59;;;11.93;100.00
78407;BME280;67692;51.074;-1.790;2024-02-04T06:27:11;102099.50;;;11.94;100.00
78407;BME280;67692;51.074;-1.790;2024-02-04T06:29:38;102098.66;;;11.93;100.00
78407;BME280;67692;51.074;-1.790;2024-02-04T06:32:05;102104.78;;;11.92;100.00
78407;BME280;67692;51.074;-1.790;2024-02-04T06:34:32;102097.28;;;11.86;100.00
78407;BME280;67692;51.074;-1.790;2024-02-04T06:36:59;102104.00;;;11.90;100.00
78407;BME280;67692;51.074;-1.790;2024-02-04T06:39:25;102098.66;;;11.93;100.00
78407;BME280;67692;51.074;-1.790;2024-02-04T06:41:53;102109.78;;;11.95;100.00
78407;BME280;67692;51.074;-1.790;2024-02-04T06:44:20;102095.31;;;11.91;100.00
78407;BME280;67692;51.074;-1.790;2024-02-04T06:46:46;102098.50;;;11.96;100.00
78407;BME280;67692;51.074;-1.790;2024-02-04T06:49:13;102095.31;;;11.91;100.00
78407;BME280;67692;51.074;-1.790;2024-02-04T06:51:43;102090.38;;;11.86;100.00
78407;BME280;67692;51.074;-1.790;2024-02-04T06:54:10;102098.81;;;11.90;100.00
78407;BME280;67692;51.074;-1.790;2024-02-04T06:56:37;102096.97;;;11.92;100.00
78407;BME280;67692;51.074;-1.790;2024-02-04T06:59:05;102103.09;;;11.91;100.00
78407;BME280;67692;51.074;-1.790;2024-02-04T07:01:32;102095.97;;;11.95;100.00
78407;BME280;67692;51.074;-1.790;2024-02-04T07:03:59;102099.56;;;11.92;100.00
78407;BME280;67692;51.074;-1.790;2024-02-04T07:06:26;102095.38;;;11.89;100.00
78407;BME280;67692;51.074;-1.790;2024-02-04T07:08:52;102094.56;;;11.89;100.00
78407;BME280;67692;51.074;-1.790;2024-02-04T07:11:19;102094.38;;;11.92;100.00
78407;BME280;67692;51.074;-1.790;2024-02-04T07:13:46;102090.72;;;11.96;100.00
78407;BME280;67692;51.074;-1.790;2024-02-04T07:16:14;102093.13;;;11.99;100.00
78407;BME280;67692;51.074;-1.790;2024-02-04T07:18:40;102089.19;;;11.92;100.00
78407;BME280;67692;51.074;-1.790;2024-02-04T07:21:07;102077.38;;;11.86;100.00
78407;BME280;67692;51.074;-1.790;2024-02-04T07:23:33;102079.81;;;11.89;100.00
78407;BME280;67692;51.074;-1.790;2024-02-04T07:26:00;102077.13;;;11.91;100.00
78407;BME280;67692;51.074;-1.790;2024-02-04T07:28:27;102078.97;;;11.89;100.00
78407;BME280;67692;51.074;-1.790;2024-02-04T07:30:53;102083.41;;;11.87;100.00
78407;BME280;67692;51.074;-1.790;2024-02-04T07:33:21;102085.31;;;11.83;100.00
78407;BME280;67692;51.074;-1.790;2024-02-04T07:35:48;102088.59;;;11.87;100.00
78407;BME280;67692;51.074;-1.790;2024-02-04T07:38:15;102085.22;;;11.85;100.00
78407;BME280;67692;51.074;-1.790;2024-02-04T07:40:42;102089.44;;;11.87;100.00
78407;BME280;67692;51.074;-1.790;2024-02-04T07:43:08;102085.09;;;11.88;100.00
78407;BME280;67692;51.074;-1.790;2024-02-04T07:45:35;102079.72;;;11.91;100.00
78407;BME280;67692;51.074;-1.790;2024-02-04T07:48:02;102081.41;;;11.92;100.00
78407;BME280;67692;51.074;-1.790;2024-02-04T07:50:30;102080.03;;;11.85;100.00
78407;BME280;67692;51.074;-1.790;2024-02-04T07:52:56;102080.75;;;11.88;100.00
78407;BME280;67692;51.074;-1.790;2024-02-04T07:55:23;102083.34;;;11.88;100.00
78407;BME280;67692;51.074;-1.790;2024-02-04T07:57:50;102076.38;;;11.89;100.00
78407;BME280;67692;51.074;-1.790;2024-02-04T08:00:17;102081.25;;;11.95;100.00
78407;BME280;67692;51.074;-1.790;2024-02-04T08:02:44;102089.19;;;11.92;100.00
78407;BME280;67692;51.074;-1.790;2024-02-04T08:05:11;102091.78;;;11.92;100.00
78407;BME280;67692;51.074;-1.790;2024-02-04T08:07:39;102095.16;;;11.94;100.00
78407;BME280;67692;51.074;-1.790;2024-02-04T08:10:07;102095.31;;;11.91;100.00
78407;BME280;67692;51.074;-1.790;2024-02-04T08:12:33;102098.66;;;11.93;100.00
78407;BME280;67692;51.074;-1.790;2024-02-04T08:15:00;102096.81;;;11.95;100.00
78407;BME280;67692;51.074;-1.790;2024-02-04T08:17:27;102113.41;;;11.93;100.00
78407;BME280;67692;51.074;-1.790;2024-02-04T08:19:56;102116.75;;;11.95;100.00
78407;BME280;67692;51.074;-1.790;2024-02-04T08:22:23;102115.00;;;11.95;100.00
78407;BME280;67692;51.074;-1.790;2024-02-04T08:24:51;102119.09;;;11.99;100.00
78407;BME280;67692;51.074;-1.790;2024-02-04T08:27:17;102113.91;;;11.99;100.00
78407;BME280;67692;51.074;-1.790;2024-02-04T08:29:44;102116.50;;;11.99;100.00
78407;BME280;67692;51.074;-1.790;2024-02-04T08:32:11;102110.25;;;12.03;100.00
78407;BME280;67692;51.074;-1.790;2024-02-04T08:34:38;102105.06;;;12.03;100.00
78407;BME280;67692;51.074;-1.790;2024-02-04T08:37:04;102107.75;;;12.02;100.00
78407;BME280;67692;51.074;-1.790;2024-02-04T08:39:31;102111.94;;;12.04;100.00
78407;BME280;67692;51.074;-1.790;2024-02-04T08:41:59;102101.38;;;12.07;100.00
78407;BME280;67692;51.074;-1.790;2024-02-04T08:44:26;102098.59;;;12.10;100.00
78407;BME280;67692;51.074;-1.790;2024-02-04T08:46:53;102102.56;;;12.17;100.00
78407;BME280;67692;51.074;-1.790;2024-02-04T08:49:20;102107.06;;;12.14;100.00
78407;BME280;67692;51.074;-1.790;2024-02-04T08:51:47;102107.78;;;12.17;100.00
78407;BME280;67692;51.074;-1.790;2024-02-04T08:54:14;102116.47;;;12.16;100.00
78407;BME280;67692;51.074;-1.790;2024-02-04T08:56:42;102112.97;;;12.17;100.00
78407;BME280;67692;51.074;-1.790;2024-02-04T08:59:11;102116.53;;;12.15;100.00
78407;BME280;67692;51.074;-1.790;2024-02-04T09:01:37;102120.84;;;12.16;100.00
78407;BME280;67692;51.074;-1.790;2024-02-04T09:04:04;102124.84;;;12.21;100.00
78407;BME280;67692;51.074;-1.790;2024-02-04T09:06:31;102118.66;;;12.24;100.00
78407;BME280;67692;51.074;-1.790;2024-02-04T09:08:58;102118.50;;;12.27;100.00
78407;BME280;67692;51.074;-1.790;2024-02-04T09:11:24;102127.19;;;12.26;100.00
78407;BME280;67692;51.074;-1.790;2024-02-04T09:13:51;102130.88;;;12.22;100.00
78407;BME280;67692;51.074;-1.790;2024-02-04T09:16:19;102136.16;;;12.20;100.00
78407;BME280;67692;51.074;-1.790;2024-02-04T09:18:45;102135.41;;;12.18;100.00
78407;BME280;67692;51.074;-1.790;2024-02-04T09:21:12;102140.44;;;12.21;100.00
78407;BME280;67692;51.074;-1.790;2024-02-04T09:23:39;102149.75;;;12.26;100.00
78407;BME280;67692;51.074;-1.790;2024-02-04T09:26:05;102142.78;;;12.26;100.00
78407;BME280;67692;51.074;-1.790;2024-02-04T09:28:32;102148.72;;;12.28;100.00
78407;BME280;67692;51.074;-1.790;2024-02-04T09:30:59;102148.72;;;12.28;100.00
78407;BME280;67692;51.074;-1.790;2024-02-04T09:33:27;102154.00;;;12.27;100.00
78407;BME280;67692;51.074;-1.790;2024-02-04T09:35:54;102156.03;;;12.21;100.00
78407;BME280;67692;51.074;-1.790;2024-02-04T09:38:21;102151.59;;;12.24;100.00
78407;BME280;67692;51.074;-1.790;2024-02-04T09:40:47;102153.25;;;12.25;100.00
78407;BME280;67692;51.074;-1.790;2024-02-04T09:43:15;102146.31;;;12.25;100.00
78407;BME280;67692;51.074;-1.790;2024-02-04T09:45:42;102148.06;;;12.25;100.00
78407;BME280;67692;51.074;-1.790;2024-02-04T09:48:09;102138.59;;;12.24;100.00
78407;BME280;67692;51.074;-1.790;2024-02-04T09:50:38;102145.47;;;12.25;100.00
78407;BME280;67692;51.074;-1.790;2024-02-04T09:53:07;102141.88;;;12.27;100.00
78407;BME280;67692;51.074;-1.790;2024-02-04T09:55:34;102142.63;;;12.29;100.00
78407;BME280;67692;51.074;-1.790;2024-02-04T09:58:01;102138.28;;;12.30;100.00
78407;BME280;67692;51.074;-1.790;2024-02-04T10:00:29;102128.75;;;12.30;100.00
78407;BME280;67692;51.074;-1.790;2024-02-04T10:02:57;102131.25;;;12.32;100.00
78407;BME280;67692;51.074;-1.790;2024-02-04T10:05:24;102135.34;;;12.36;100.00
78407;BME280;67692;51.074;-1.790;2024-02-04T10:07:52;102143.16;;;12.36;100.00
78407;BME280;67692;51.074;-1.790;2024-02-04T10:10:19;102145.00;;;12.34;100.00
78407;BME280;67692;51.074;-1.790;2024-02-04T10:12:47;102135.53;;;12.33;100.00
78407;BME280;67692;51.074;-1.790;2024-02-04T10:15:14;102148.34;;;12.36;100.00
78407;BME280;67692;51.074;-1.790;2024-02-04T10:17:42;102156.72;;;12.41;100.00
78407;BME280;67692;51.074;-1.790;2024-02-04T10:20:10;102143.81;;;12.39;100.00
78407;BME280;67692;51.074;-1.790;2024-02-04T10:22:37;102153.13;;;12.43;100.00
78407;BME280;67692;51.074;-1.790;2024-02-04T10:25:09;102151.22;;;12.47;100.00
78407;BME280;67692;51.074;-1.790;2024-02-04T10:27:37;102152.06;;;12.47;100.00
78407;BME280;67692;51.074;-1.790;2024-02-04T10:30:05;102145.00;;;12.49;100.00
78407;BME280;67692;51.074;-1.790;2024-02-04T10:32:32;102149.38;;;12.49;100.00
78407;BME280;67692;51.074;-1.790;2024-02-04T10:34:58;102145.09;;;12.48;100.00
78407;BME280;67692;51.074;-1.790;2024-02-04T10:37:26;102154.75;;;12.46;100.00
78407;BME280;67692;51.074;-1.790;2024-02-04T10:39:53;102151.53;;;12.57;100.00
78407;BME280;67692;51.074;-1.790;2024-02-04T10:42:24;102143.91;;;12.54;100.00
78407;BME280;67692;51.074;-1.790;2024-02-04T10:44:52;102154.06;;;12.58;100.00
78407;BME280;67692;51.074;-1.790;2024-02-04T10:47:22;102150.56;;;12.59;100.00
78407;BME280;67692;51.074;-1.790;2024-02-04T10:49:50;102139.25;;;12.60;100.00
78407;BME280;67692;51.074;-1.790;2024-02-04T10:52:18;102140.84;;;12.63;100.00
78407;BME280;67692;51.074;-1.790;2024-02-04T10:54:46;102134.06;;;12.60;100.00
78407;BME280;67692;51.074;-1.790;2024-02-04T10:57:19;102134.63;;;12.65;100.00
78407;BME280;67692;51.074;-1.790;2024-02-04T10:59:48;102136.88;;;12.71;100.00
78407;BME280;67692;51.074;-1.790;2024-02-04T11:02:15;102141.69;;;12.79;100.00
78407;BME280;67692;51.074;-1.790;2024-02-04T11:04:43;102152.72;;;12.82;100.00
78407;BME280;67692;51.074;-1.790;2024-02-04T11:07:10;102147.97;;;12.91;100.00
78407;BME280;67692;51.074;-1.790;2024-02-04T11:09:39;102148.97;;;12.88;100.00
78407;BME280;67692;51.074;-1.790;2024-02-04T11:12:09;102155.75;;;12.91;100.00
78407;BME280;67692;51.074;-1.790;2024-02-04T11:14:39;102150.38;;;12.94;100.00
78407;BME280;67692;51.074;-1.790;2024-02-04T11:17:24;102153.00;;;12.94;100.00
78407;BME280;67692;51.074;-1.790;2024-02-04T11:20:10;102150.38;;;12.94;99.82
78407;BME280;67692;51.074;-1.790;2024-02-04T11:23:00;102143.69;;;12.90;100.00
78407;BME280;67692;51.074;-1.790;2024-02-04T11:25:50;102133.44;;;12.87;98.85
78407;BME280;67692;51.074;-1.790;2024-02-04T11:28:21;102140.16;;;12.91;99.50
78407;BME280;67692;51.074;-1.790;2024-02-04T11:30:48;102137.56;;;12.91;99.61
78407;BME280;67692;51.074;-1.790;2024-02-04T11:33:20;102140.34;;;12.88;98.64
78407;BME280;67692;51.074;-1.790;2024-02-04T11:35:57;102134.28;;;12.87;98.92
78407;BME280;67692;51.074;-1.790;2024-02-04T11:38:29;102134.28;;;12.87;99.45
78407;BME280;67692;51.074;-1.790;2024-02-04T11:40:56;102124.22;;;12.81;99.82
78407;BME280;67692;51.074;-1.790;2024-02-04T11:43:23;102123.03;;;12.87;98.57
78407;BME280;67692;51.074;-1.790;2024-02-04T11:45:52;102110.72;;;12.90;98.49
78407;BME280;67692;51.074;-1.790;2024-02-04T11:48:28;102112.50;;;12.90;98.87
78407;BME280;67692;51.074;-1.790;2024-02-04T11:50:54;102106.38;;;12.91;98.97
78407;BME280;67692;51.074;-1.790;2024-02-04T11:53:23;102100.25;;;12.92;98.76
78407;BME280;67692;51.074;-1.790;2024-02-04T11:55:53;102107.03;;;12.94;98.55
78407;BME280;67692;51.074;-1.790;2024-02-04T11:58:19;102106.94;;;12.96;98.58
78407;BME280;67692;51.074;-1.790;2024-02-04T12:00:46;102108.19;;;13.04;98.14
78407;BME280;67692;51.074;-1.790;2024-02-04T12:03:14;102113.53;;;13.01;97.69
78407;BME280;67692;51.074;-1.790;2024-02-04T12:05:43;102109.78;;;13.07;96.03
78407;BME280;67692;51.074;-1.790;2024-02-04T12:08:11;102104.56;;;13.07;96.92
78407;BME280;67692;51.074;-1.790;2024-02-04T12:10:38;102104.22;;;13.13;96.54
78407;BME280;67692;51.074;-1.790;2024-02-04T12:13:06;102098.19;;;13.13;96.87
78407;BME280;67692;51.074;-1.790;2024-02-04T12:15:34;102092.13;;;13.12;96.06
78407;BME280;67692;51.074;-1.790;2024-02-04T12:18:08;102097.94;;;13.17;96.46
78407;BME280;67692;51.074;-1.790;2024-02-04T12:20:36;102086.44;;;13.21;96.36
78407;BME280;67692;51.074;-1.790;2024-02-04T12:23:05;102083.66;;;13.24;96.72
78407;BME280;67692;51.074;-1.790;2024-02-04T12:25:32;102077.34;;;13.28;95.83
78407;BME280;67692;51.074;-1.790;2024-02-04T12:27:59;102070.47;;;13.27;95.07
78407;BME280;67692;51.074;-1.790;2024-02-04T12:30:28;102073.81;;;13.29;95.35
78407;BME280;67692;51.074;-1.790;2024-02-04T12:32:56;102079.72;;;13.33;94.61